Have a Safe July 4th! 

Flight Track Log - Related Links

Times and Time Zones

All times are in EDT time to prevent confusion due to time zone crossing. See the N541JD flight status page for this flight to view local times or setup timezone preferences in your user account.

Time Position Orientation Groundspeed Altitude Reporting Facility
EDT Latitude Longitude Course Direction KTS MPH feet Rate Location/Type
Sun 06:20:09 PM 30.0317 -90.0308 172° South 78 90 600  Level Houston Center
Sun 06:20:39 PM 30.0192 -90.0289 172° South 88 101 1,300 989 Climbing Houston Center
Sun 06:21:40 PM 30.0206 -90.0047 86° East 137 158 2,100 830 Climbing Houston Center
Sun 06:22:13 PM 30.0317 -89.9981 27° Northeast 124 143 2,600 1,082 Climbing Houston Center
Sun 06:22:41 PM 30.0514 -89.9867 27° Northeast 134 154 3,200 1,161 Climbing Houston Center
Sun 06:23:15 PM 30.0708 -89.9769 23° Northeast 128 147 3,800 787 Climbing Houston Center
Sun 06:23:42 PM 30.0842 -89.9708 22° Northeast 133 153 4,000 897 Climbing Houston Center
Sun 06:24:42 PM 30.1192 -89.9525 24° Northeast 132 152 5,100 673 Climbing Houston Center
Sun 06:25:20 PM 30.1419 -89.9417 22° Northeast 135 155 5,100 -98 Level Houston Center
Sun 06:25:43 PM 30.1644 -89.9314 22° Northeast 180 207 5,000 -97 Descending Houston Center
Sun 06:26:22 PM 30.1883 -89.9172 27° Northeast 163 188 5,000  Level Houston Center
Sun 06:26:44 PM 30.2117 -89.9028 28° Northeast 190 219 5,000  Level Houston Center
Sun 06:27:24 PM 30.2342 -89.8883 29° Northeast 177 204 5,000 59 Level Houston Center
Sun 06:28:26 PM 30.2811 -89.8608 27° Northeast 183 211 5,100 48 Climbing Houston Center
Sun 06:29:28 PM 30.3322 -89.8219 33° Northeast 185 213 5,100  Level Houston Center
Sun 06:30:30 PM 30.3842 -89.7981 22° Northeast 186 214 5,100  Level Houston Center
Sun 06:31:32 PM 30.4347 -89.7792 18° North 186 214 5,100  Level Houston Center
Sun 06:32:34 PM 30.4842 -89.7597 19° North 186 214 5,100  Level Houston Center
Sun 06:33:28 PM 30.5328 -89.7431 16° North 190 219 5,100 -48 Level Houston Center
Sun 06:34:39 PM 30.5847 -89.7211 20° North 186 214 5,000  Descending Houston Center
Sun 06:35:41 PM 30.6336 -89.6975 23° Northeast 186 214 5,100 48 Climbing Houston Center
Sun 06:36:43 PM 30.6828 -89.6753 21° North 187 215 5,100  Level Houston Center
Sun 06:37:05 PM 30.7106 -89.6622 22° Northeast 192 221 5,100  Level Houston Center
Sun 06:37:45 PM 30.7414 -89.6489 20° North 187 215 5,100  Level Houston Center
Sun 06:38:47 PM 30.7911 -89.6272 21° North 187 215 5,100  Level Houston Center
Sun 06:39:49 PM 30.8414 -89.6044 21° North 190 219 5,100 -48 Level Houston Center
Sun 06:40:51 PM 30.8917 -89.5808 22° Northeast 190 219 5,000 -48 Descending Houston Center
Sun 06:41:54 PM 30.9414 -89.5583 21° North 191 220 5,000  Level Houston Center
Sun 06:42:56 PM 31.0008 -89.5311 21° North 191 220 5,000 48 Level Houston Center
Sun 06:43:58 PM 31.0514 -89.5083 21° North 191 220 5,100 48 Climbing Houston Center
Sun 06:45:00 PM 31.1000 -89.4853 22° Northeast 191 220 5,100  Level Houston Center
Sun 06:46:03 PM 31.1503 -89.4628 21° North 191 220 5,100  Level Houston Center
Sun 06:47:04 PM 31.1997 -89.4378 23° Northeast 191 220 5,100 -49 Level Houston Center
Sun 06:48:06 PM 31.2497 -89.4164 20° North 191 220 5,000  Descending Houston Center
Sun 06:49:08 PM 31.2997 -89.3917 23° Northeast 191 220 5,100 48 Climbing Houston Center
Sun 06:50:10 PM 31.3586 -89.3644 22° Northeast 191 220 5,100  Level Houston Center
Sun 06:51:13 PM 31.4094 -89.3414 21° North 191 220 5,100 -48 Level Houston Center
Sun 06:52:15 PM 31.4511 -89.3058 36° Northeast 189 217 5,000  Descending Houston Center
Sun 06:53:17 PM 31.4925 -89.2692 37° Northeast 189 217 5,100 48 Climbing Houston Center
Sun 06:54:19 PM 31.5336 -89.2322 37° Northeast 188 216 5,100 48 Level Houston Center
Sun 06:55:21 PM 31.5819 -89.1867 39° Northeast 188 216 5,200 48 Climbing Houston Center
Sun 06:56:23 PM 31.6222 -89.1497 38° Northeast 188 216 5,200  Level Houston Center
Sun 06:57:25 PM 31.6633 -89.1131 37° Northeast 188 216 5,200  Level Houston Center
Sun 06:58:27 PM 31.7039 -89.0747 39° Northeast 188 216 5,200  Level Houston Center
Sun 06:59:30 PM 31.7453 -89.0369 38° Northeast 188 216 5,200  Level Houston Center
Sun 07:00:32 PM 31.7869 -88.9997 37° Northeast 188 216 5,200  Level Houston Center
Sun 07:01:34 PM 31.8356 -88.9536 39° Northeast 188 216 5,200  Level Houston Center
Sun 07:02:36 PM 31.8761 -88.9158 38° Northeast 188 216 5,200  Level Houston Center
Sun 07:03:38 PM 31.9178 -88.8769 38° Northeast 188 216 5,200  Level Houston Center
Sun 07:04:40 PM 31.9594 -88.8392 38° Northeast 188 216 5,200  Level Houston Center
Sun 07:05:42 PM 32.0011 -88.8000 39° Northeast 188 216 5,200  Level Houston Center
Sun 07:06:44 PM 32.0425 -88.7625 38° Northeast 188 216 5,200  Level Houston Center
Sun 07:07:46 PM 32.0917 -88.7164 38° Northeast 188 216 5,200  Level Houston Center
Sun 07:08:49 PM 32.1328 -88.6781 38° Northeast 188 216 5,200 -45 Level Houston Center
Sun 07:10:00 PM 32.1825 -88.6319 38° Northeast 188 216 5,100 -45 Descending Memphis Center
Sun 07:11:02 PM 32.2264 -88.5914 38° Northeast 188 216 5,100  Level Memphis Center
Sun 07:12:04 PM 32.2675 -88.5519 39° Northeast 189 217 5,100  Level Memphis Center
Sun 07:13:06 PM 32.3081 -88.5142 38° Northeast 189 217 5,100  Level Memphis Center
Sun 07:14:08 PM 32.3497 -88.4764 37° Northeast 189 217 5,100  Level Memphis Center
Sun 07:15:09 PM 32.3867 -88.4364 42° Northeast 188 216 5,100  Level Memphis Center
Sun 07:16:11 PM 32.4239 -88.3756 54° Northeast 189 217 5,100  Level Memphis Center
Sun 07:26:29 PM 32.7808 -87.8992 50° Northeast 178 205 5,100  Level Memphis Center
Sun 07:27:00 PM 32.7842 -87.8821 52° Northeast  Level FlightAware Approximate
Sun 07:27:31 PM 32.8147 -87.8422 55° Northeast 201 231 5,100  Level Memphis Center
Sun 07:28:00 PM 32.8158 -87.8347 52° Northeast  Level FlightAware Approximate
Sun 07:28:33 PM 32.8489 -87.7964 48° Northeast 199 229 5,100  Level Memphis Center
Sun 07:29:00 PM 32.8485 -87.7884 50° Northeast  Level FlightAware Approximate
Sun 07:29:35 PM 32.8831 -87.7492 49° Northeast 193 222 5,100  Level Memphis Center
Sun 07:30:00 PM 32.8813 -87.7420 50° Northeast  Level FlightAware Approximate
Sun 07:30:37 PM 32.9167 -87.7017 50° Northeast 192 221 5,100  Level Memphis Center
Sun 07:31:00 PM 32.9140 -87.6957 50° Northeast  Level FlightAware Approximate
Sun 07:31:39 PM 32.9500 -87.6556 49° Northeast 191 220 5,100  Level Memphis Center
Sun 07:32:41 PM 32.9844 -87.6103 48° Northeast 190 219 5,100  Level Memphis Center
Sun 07:33:42 PM 33.0247 -87.5525 50° Northeast 190 219 5,100  Level Memphis Center
Sun 07:34:44 PM 33.0586 -87.5033 51° Northeast 190 219 5,100  Level Memphis Center
Sun 07:35:46 PM 33.0933 -87.4553 49° Northeast 190 219 5,100 48 Level Memphis Center
Sun 07:36:48 PM 33.1108 -87.4050 67° East 186 214 5,200  Climbing Memphis Center
Sun 07:37:50 PM 33.1075 -87.3497 94° East 174 200 5,100 -48 Descending Memphis Center
Sun 07:38:52 PM 33.1031 -87.2933 95° East 172 198 5,100  Level Memphis Center
Sun 07:39:54 PM 33.1003 -87.2400 94° East 170 196 5,100  Level Memphis Center
Sun 07:40:28 PM 33.1106 -87.2083 69° East 167 192 5,100  Level Atlanta Center
Sun 07:40:58 PM 33.1258 -87.1889 47° Northeast 169 194 5,100  Level Atlanta Center
Sun 07:41:53 PM 33.1539 -87.1503 49° Northeast 165 190 5,100 -110 Level Atlanta Center
Sun 07:42:47 PM 33.1800 -87.1114 51° Northeast 160 184 4,900 -222 Descending Atlanta Center
Sun 07:46:00 PM 33.2366 -87.0166 54° Northeast  Level FlightAware Approximate
Sun 07:53:00 PM 33.3000 -86.9167 53° Northeast  Level FlightAware Approximate
Sun 07:54:00 PM 33.3126 -86.9263 90° East  Level Estimated

Login

Don't have an account? Register now (free) for customized features, flight alerts, and more!